createdAt,value
2019-04-14T00:01:39.103Z,63.18
2019-04-14T00:04:22.584Z,62.63
2019-04-14T00:06:54.814Z,62.55
2019-04-14T00:09:27.207Z,62.96
2019-04-14T00:11:59.093Z,63.18
2019-04-14T00:14:30.008Z,63.17
2019-04-14T00:17:02.106Z,62.87
2019-04-14T00:19:34.673Z,63.12
2019-04-14T00:22:07.217Z,63.10
2019-04-14T00:24:40.228Z,63.12
2019-04-14T00:27:11.359Z,63.02
2019-04-14T00:29:42.220Z,62.80
2019-04-14T00:32:14.111Z,62.76
2019-04-14T00:34:59.415Z,62.70
2019-04-14T00:37:35.881Z,62.54
2019-04-14T00:40:15.136Z,62.29
2019-04-14T00:43:00.487Z,62.46
2019-04-14T00:45:45.291Z,62.25
2019-04-14T00:48:18.954Z,62.61
2019-04-14T00:50:49.539Z,62.75
2019-04-14T00:53:20.813Z,62.78
2019-04-14T00:55:51.734Z,62.69
2019-04-14T00:58:23.605Z,62.42
2019-04-14T01:00:55.752Z,62.57
2019-04-14T01:03:26.646Z,62.53
2019-04-14T01:05:59.053Z,62.60
2019-04-14T01:08:29.937Z,62.62
2019-04-14T01:11:01.167Z,62.41
2019-04-14T01:13:33.173Z,62.54
2019-04-14T01:16:11.597Z,62.58
2019-04-14T01:18:38.672Z,62.81
2019-04-14T01:21:10.944Z,62.99
2019-04-14T01:23:43.472Z,62.47
2019-04-14T01:26:16.021Z,62.85
2019-04-14T01:28:48.204Z,62.58
2019-04-14T01:31:20.649Z,62.78
2019-04-14T01:33:53.283Z,62.96
2019-04-14T01:36:25.519Z,62.74
2019-04-14T01:38:56.380Z,62.79
2019-04-14T01:41:28.226Z,62.90
2019-04-14T01:44:00.234Z,62.90
2019-04-14T01:46:33.052Z,63.28
2019-04-14T01:49:04.935Z,63.52
2019-04-14T01:51:59.223Z,63.84
2019-04-14T01:54:42.992Z,63.57
2019-04-14T01:57:32.893Z,64.04
2019-04-14T02:00:22.828Z,62.80
2019-04-14T02:02:55.374Z,63.43
2019-04-14T02:05:26.360Z,63.40
2019-04-14T02:07:58.003Z,63.95
2019-04-14T02:10:30.392Z,63.49
2019-04-14T02:13:02.824Z,63.60
2019-04-14T02:15:35.114Z,63.71
2019-04-14T02:18:07.711Z,63.79
2019-04-14T02:20:40.380Z,63.94
2019-04-14T02:23:12.598Z,64.63
2019-04-14T02:25:45.058Z,64.11
2019-04-14T02:28:17.651Z,64.11
2019-04-14T02:31:00.224Z,64.07
2019-04-14T02:33:44.590Z,64.54
2019-04-14T02:39:01.290Z,64.80
2019-04-14T02:41:27.690Z,64.44
2019-04-14T02:44:04.383Z,65.08
2019-04-14T02:46:39.992Z,65.19
2019-04-14T02:49:20.418Z,65.07
2019-04-14T02:51:36.375Z,64.95
2019-04-14T02:54:13.832Z,65.61
2019-04-14T02:56:41.212Z,65.41
2019-04-14T02:59:11.715Z,65.58
2019-04-14T03:04:19.140Z,65.79
2019-04-14T03:06:58.210Z,66.14
2019-04-14T03:09:38.838Z,65.99
2019-04-14T03:12:01.172Z,66.00
2019-04-14T03:17:39.094Z,65.93
2019-04-14T03:20:27.403Z,66.19
2019-04-14T03:25:51.317Z,66.60
2019-04-14T03:28:31.739Z,66.42
2019-04-14T03:31:25.250Z,66.52
2019-04-14T03:34:17.603Z,66.82
2019-04-14T03:41:24.062Z,66.65
2019-04-14T03:43:48.304Z,67.00
2019-04-14T03:46:41.502Z,66.81
2019-04-14T03:48:58.415Z,66.69
2019-04-14T03:51:43.159Z,66.76
2019-04-14T03:53:58.738Z,66.73
2019-04-14T03:57:01.838Z,66.59
2019-04-14T03:59:34.511Z,66.68
2019-04-14T04:02:05.454Z,66.88
2019-04-14T04:04:36.591Z,67.09
2019-04-14T04:07:08.240Z,67.51
2019-04-14T04:09:45.480Z,67.32
2019-04-14T04:12:16.718Z,67.32
2019-04-14T04:14:48.543Z,67.48
2019-04-14T04:17:56.598Z,67.51
2019-04-14T04:20:35.557Z,67.68
2019-04-14T04:23:24.889Z,67.79
2019-04-14T04:26:01.746Z,67.96
2019-04-14T04:28:50.382Z,67.56
2019-04-14T04:31:30.686Z,68.04
2019-04-14T04:34:10.099Z,67.86
2019-04-14T04:36:59.559Z,67.98
2019-04-14T04:39:36.360Z,68.18
2019-04-14T04:42:07.018Z,68.01
2019-04-14T04:44:38.244Z,68.40
2019-04-14T04:47:09.916Z,68.60
2019-04-14T04:49:41.042Z,68.43
2019-04-14T04:52:13.989Z,68.33
2019-04-14T04:54:45.021Z,68.48
2019-04-14T04:57:15.840Z,68.54
2019-04-14T04:59:47.663Z,68.29
2019-04-14T05:02:19.811Z,67.75
2019-04-14T05:04:50.821Z,67.91
2019-04-14T05:07:23.157Z,67.88
2019-04-14T05:10:16.036Z,67.96
2019-04-14T05:13:00.565Z,67.93
2019-04-14T05:15:48.941Z,67.76
2019-04-14T05:18:22.332Z,67.47
2019-04-14T05:20:55.217Z,67.47
2019-04-14T05:23:26.322Z,67.26
2019-04-14T05:25:58.148Z,67.01
2019-04-14T05:28:31.014Z,67.06
2019-04-14T05:31:03.250Z,66.38
2019-04-14T05:33:34.535Z,66.67
2019-04-14T05:36:06.328Z,66.70
2019-04-14T05:38:38.517Z,66.76
2019-04-14T05:41:11.502Z,66.50
2019-04-14T05:43:48.766Z,66.48
2019-04-14T05:46:16.345Z,66.11
2019-04-14T05:48:47.409Z,66.11
2019-04-14T05:51:20.165Z,66.59
2019-04-14T05:53:52.280Z,66.18
2019-04-14T05:56:23.726Z,65.66
2019-04-14T05:58:55.692Z,65.21
2019-04-14T06:01:27.042Z,65.60
2019-04-14T06:03:58.311Z,65.72
2019-04-14T06:06:29.624Z,65.46
2019-04-14T06:09:00.497Z,65.62
2019-04-14T06:11:32.737Z,65.81
2019-04-14T06:14:03.951Z,65.46
2019-04-14T06:16:35.065Z,64.96
2019-04-14T06:19:05.935Z,64.53
2019-04-14T06:21:37.056Z,63.64
2019-04-14T06:24:08.207Z,64.02
2019-04-14T06:26:39.148Z,63.60
2019-04-14T06:29:09.983Z,63.67
2019-04-14T06:32:02.983Z,64.00
2019-04-14T06:34:46.758Z,64.66
2019-04-14T06:37:26.520Z,64.96
2019-04-14T06:39:57.654Z,64.87
2019-04-14T06:42:28.612Z,64.51
2019-04-14T06:44:59.465Z,64.17
2019-04-14T06:47:30.727Z,64.30
2019-04-14T06:50:01.863Z,64.48
2019-04-14T06:52:32.734Z,64.09
2019-04-14T06:55:03.789Z,64.51
2019-04-14T06:57:34.995Z,64.24
2019-04-14T07:00:05.999Z,63.83
2019-04-14T07:02:36.855Z,64.00
2019-04-14T07:05:07.731Z,63.32
2019-04-14T07:07:38.671Z,63.29
2019-04-14T07:10:09.691Z,63.32
2019-04-14T07:12:43.008Z,63.80
2019-04-14T07:15:13.449Z,63.20
2019-04-14T07:17:44.761Z,63.22
2019-04-14T07:20:15.626Z,63.39
2019-04-14T07:22:46.489Z,63.19
2019-04-14T07:25:17.331Z,63.12
2019-04-14T07:27:48.228Z,63.14
2019-04-14T07:30:44.264Z,62.94
2019-04-14T07:33:32.687Z,62.47
2019-04-14T07:36:31.816Z,62.40
2019-04-14T07:39:27.957Z,62.77
2019-04-14T07:42:07.152Z,62.68
2019-04-14T07:44:56.335Z,62.44
2019-04-14T07:47:43.440Z,62.47
2019-04-14T07:50:39.612Z,62.80
2019-04-14T07:53:28.735Z,62.87
2019-04-14T07:56:13.974Z,62.84
2019-04-14T07:58:56.282Z,62.90
2019-04-14T08:01:44.783Z,63.01
2019-04-14T08:04:18.976Z,63.62
2019-04-14T08:06:51.621Z,63.57
2019-04-14T08:09:22.457Z,63.01
2019-04-14T08:11:53.458Z,62.76
2019-04-14T08:14:24.608Z,62.63
2019-04-14T08:16:56.368Z,63.23
2019-04-14T08:19:27.202Z,63.65
2019-04-14T08:21:58.101Z,63.38
2019-04-14T08:24:29.209Z,63.84
2019-04-14T08:27:00.389Z,63.82
2019-04-14T08:29:31.926Z,63.54
2019-04-14T08:32:02.755Z,62.67
2019-04-14T08:34:33.861Z,62.28
2019-04-14T08:37:04.741Z,62.26
2019-04-14T08:39:35.955Z,62.47
2019-04-14T08:42:24.600Z,62.66
2019-04-14T08:44:56.060Z,62.33
2019-04-14T08:47:49.631Z,62.23
2019-04-14T08:50:42.842Z,61.90
2019-04-14T08:53:20.011Z,61.70
2019-04-14T08:56:12.641Z,61.82
2019-04-14T08:58:59.193Z,62.07
2019-04-14T09:01:36.071Z,62.21
2019-04-14T09:04:31.851Z,61.95
2019-04-14T09:07:20.752Z,62.34
2019-04-14T09:09:55.918Z,62.61
2019-04-14T09:12:30.437Z,62.56
2019-04-14T09:15:01.350Z,61.94
2019-04-14T09:17:33.534Z,61.78
2019-04-14T09:20:05.389Z,61.84
2019-04-14T09:22:36.551Z,61.53
2019-04-14T09:25:08.005Z,61.15
2019-04-14T09:27:39.358Z,61.27
2019-04-14T09:30:10.394Z,61.22
2019-04-14T09:32:41.382Z,61.49
2019-04-14T09:35:12.253Z,61.46
2019-04-14T09:37:43.182Z,61.43
2019-04-14T09:40:14.366Z,61.50
2019-04-14T09:42:45.271Z,60.88
2019-04-14T09:45:16.216Z,60.98
2019-04-14T09:47:47.075Z,60.63
2019-04-14T09:50:17.988Z,61.01
2019-04-14T09:52:49.510Z,60.94
2019-04-14T09:55:20.383Z,61.30
2019-04-14T09:57:51.207Z,60.64
2019-04-14T10:00:22.162Z,60.55
2019-04-14T10:02:53.601Z,61.02
2019-04-14T10:05:24.842Z,61.06
2019-04-14T10:07:55.992Z,61.10
2019-04-14T10:10:26.901Z,61.28
2019-04-14T10:12:58.290Z,61.55
2019-04-14T10:15:29.173Z,61.15
2019-04-14T10:18:00.055Z,61.08
2019-04-14T10:20:31.428Z,60.75
2019-04-14T10:23:02.308Z,60.70
2019-04-14T10:25:33.588Z,60.67
2019-04-14T10:28:04.537Z,60.82
2019-04-14T10:30:35.698Z,61.01
2019-04-14T10:33:06.602Z,60.95
2019-04-14T10:35:37.880Z,60.98
2019-04-14T10:38:09.193Z,60.96
2019-04-14T10:40:40.041Z,60.73
2019-04-14T10:43:11.151Z,61.00
2019-04-14T10:45:42.073Z,60.84
2019-04-14T10:48:12.985Z,60.95
2019-04-14T10:50:45.018Z,60.97
2019-04-14T10:53:16.111Z,61.24
2019-04-14T10:55:47.219Z,61.78
2019-04-14T10:58:18.163Z,61.93
2019-04-14T11:00:49.269Z,62.89
2019-04-14T11:03:21.761Z,62.81
2019-04-14T11:06:00.874Z,63.04
2019-04-14T11:08:31.726Z,63.11
2019-04-14T11:11:03.415Z,63.90
2019-04-14T11:13:35.354Z,64.55
2019-04-14T11:16:07.319Z,65.32
2019-04-14T11:18:39.614Z,65.30
2019-04-14T11:21:10.481Z,65.48
2019-04-14T11:23:41.322Z,65.36
2019-04-14T11:26:12.927Z,65.76
2019-04-14T11:28:43.848Z,65.36
2019-04-14T11:31:17.124Z,66.42
2019-04-14T11:34:01.271Z,66.42
2019-04-14T11:36:49.988Z,66.11
2019-04-14T11:39:21.100Z,66.06
2019-04-14T11:41:52.055Z,65.81
2019-04-14T11:44:22.911Z,66.13
2019-04-14T11:46:53.806Z,66.03
2019-04-14T11:49:25.019Z,66.12
2019-04-14T11:51:56.040Z,67.05
2019-04-14T11:54:26.959Z,68.15
2019-04-14T11:56:57.863Z,68.00
2019-04-14T11:59:48.441Z,68.12
2019-04-14T12:02:40.399Z,68.00
2019-04-14T12:05:36.112Z,68.00
2019-04-14T12:08:26.106Z,68.00
2019-04-14T12:10:57.523Z,68.65
2019-04-14T12:13:28.615Z,68.82
2019-04-14T12:15:59.525Z,68.64
2019-04-14T12:18:30.978Z,69.21
2019-04-14T12:21:01.833Z,68.79
2019-04-14T12:23:33.279Z,68.32
2019-04-14T12:26:05.979Z,67.90
2019-04-14T12:28:36.881Z,67.91
2019-04-14T12:31:09.344Z,67.90
2019-04-14T12:33:40.221Z,68.48
2019-04-14T12:36:13.008Z,68.34
2019-04-14T12:38:45.478Z,68.98
2019-04-14T12:41:22.640Z,68.75
2019-04-14T12:44:01.360Z,69.33
2019-04-14T12:46:42.466Z,69.29
2019-04-14T12:49:23.643Z,69.57
2019-04-14T12:52:21.041Z,69.74
2019-04-14T12:54:45.145Z,70.19
2019-04-14T12:57:18.297Z,69.76
2019-04-14T12:59:49.162Z,70.55
2019-04-14T13:02:22.538Z,70.58
2019-04-14T13:04:55.396Z,69.70
2019-04-14T13:07:25.936Z,69.57
2019-04-14T13:09:57.097Z,69.54
2019-04-14T13:12:27.989Z,69.50
2019-04-14T13:14:58.844Z,69.73
2019-04-14T13:17:29.737Z,69.53
2019-04-14T13:20:00.577Z,69.44
2019-04-14T13:22:34.005Z,69.89
2019-04-14T13:25:05.582Z,70.04
2019-04-14T13:27:36.488Z,69.90
2019-04-14T13:30:09.963Z,70.15
2019-04-14T13:32:40.885Z,69.83
2019-04-14T13:35:11.867Z,69.86
2019-04-14T13:37:43.253Z,70.01
2019-04-14T13:40:14.733Z,69.79
2019-04-14T13:42:45.684Z,69.91
2019-04-14T13:45:16.532Z,70.44
2019-04-14T13:47:47.421Z,70.15
2019-04-14T13:50:18.283Z,69.85
2019-04-14T13:52:49.422Z,69.73
2019-04-14T13:55:20.685Z,69.80
2019-04-14T13:57:51.528Z,69.76
2019-04-14T14:00:22.770Z,70.27
2019-04-14T14:02:53.711Z,70.44
2019-04-14T14:05:24.621Z,70.47
2019-04-14T14:07:55.491Z,70.75
2019-04-14T14:10:29.806Z,70.65
2019-04-14T14:13:13.278Z,70.39
2019-04-14T14:16:07.338Z,70.55
2019-04-14T14:18:48.419Z,71.17
2019-04-14T14:21:56.815Z,70.56
2019-04-14T14:24:39.431Z,70.51
2019-04-14T14:27:10.969Z,70.79
2019-04-14T14:29:41.954Z,70.74
2019-04-14T14:32:19.203Z,70.73
2019-04-14T14:34:50.363Z,71.20
2019-04-14T14:37:21.231Z,70.90
2019-04-14T14:39:53.169Z,71.40
2019-04-14T14:42:24.077Z,71.65
2019-04-14T14:45:00.968Z,71.59
2019-04-14T14:47:32.722Z,72.00
2019-04-14T14:50:26.600Z,71.63
2019-04-14T14:52:57.728Z,71.67
2019-04-14T14:55:28.688Z,71.50
2019-04-14T14:57:59.546Z,71.33
2019-04-14T15:00:32.596Z,71.10
2019-04-14T15:03:04.594Z,71.28
2019-04-14T15:05:36.590Z,71.28
2019-04-14T15:08:07.829Z,71.16
2019-04-14T15:10:38.724Z,71.34
2019-04-14T15:13:10.576Z,71.19
2019-04-14T15:15:41.513Z,71.09
2019-04-14T15:18:13.125Z,71.34
2019-04-14T15:20:44.125Z,71.50
2019-04-14T15:23:24.684Z,71.05
2019-04-14T15:25:47.923Z,71.05
2019-04-14T15:28:18.817Z,71.19
2019-04-14T15:30:49.701Z,71.37
2019-04-14T15:33:20.598Z,71.46
2019-04-14T15:35:52.461Z,71.81
2019-04-14T15:38:24.300Z,71.73
2019-04-14T15:40:55.222Z,71.26
2019-04-14T15:43:26.366Z,71.92
2019-04-14T15:45:59.464Z,72.06
2019-04-14T15:48:30.383Z,72.25
2019-04-14T15:51:01.544Z,72.38
2019-04-14T15:53:38.205Z,71.90
2019-04-14T15:56:06.779Z,71.94
2019-04-14T15:58:43.639Z,72.19
2019-04-14T16:01:36.411Z,72.61
2019-04-14T16:04:29.644Z,72.23
2019-04-14T16:07:19.807Z,72.21
2019-04-14T16:10:01.771Z,72.60
2019-04-14T16:12:56.034Z,72.63
2019-04-14T16:16:04.372Z,72.83
2019-04-14T16:18:49.138Z,73.04
2019-04-14T16:21:20.026Z,72.82
2019-04-14T16:23:51.735Z,72.48
2019-04-14T16:26:44.894Z,72.54
2019-04-14T16:29:20.007Z,72.26
2019-04-14T16:32:12.913Z,72.74
2019-04-14T16:34:56.161Z,73.06
2019-04-14T16:37:27.395Z,72.76
2019-04-14T16:39:58.658Z,72.80
2019-04-14T16:42:29.806Z,72.53
2019-04-14T16:45:00.651Z,72.50
2019-04-14T16:47:32.141Z,72.16
2019-04-14T16:50:03.454Z,72.38
2019-04-14T16:52:56.622Z,72.68
2019-04-14T16:55:43.847Z,72.68
2019-04-14T16:58:20.383Z,72.37
2019-04-14T17:00:56.357Z,72.65
2019-04-14T17:03:27.208Z,72.53
2019-04-14T17:05:58.463Z,72.67
2019-04-14T17:08:29.556Z,72.72
2019-04-14T17:11:00.723Z,72.60
2019-04-14T17:13:34.812Z,72.71
2019-04-14T17:16:23.594Z,72.72
2019-04-14T17:19:03.255Z,72.68
2019-04-14T17:21:42.542Z,72.92
2019-04-14T17:24:31.178Z,73.07
2019-04-14T17:27:11.767Z,72.92
2019-04-14T17:30:16.980Z,72.78
2019-04-14T17:33:07.581Z,72.86
2019-04-14T17:36:03.998Z,72.63
2019-04-14T17:38:48.790Z,72.80
2019-04-14T17:41:56.736Z,72.76
2019-04-14T17:44:45.366Z,72.51
2019-04-14T17:47:34.378Z,72.50
2019-04-14T17:50:23.996Z,72.26
2019-04-14T17:53:00.577Z,72.28
2019-04-14T17:55:49.117Z,72.31
2019-04-14T17:58:15.233Z,72.58
2019-04-14T18:00:56.684Z,72.63
2019-04-14T18:03:38.196Z,72.65
2019-04-14T18:06:28.703Z,72.73
2019-04-14T18:09:29.026Z,72.61
2019-04-14T18:12:19.126Z,72.71
2019-04-14T18:15:15.195Z,72.67
2019-04-14T18:18:05.105Z,72.73
2019-04-14T18:20:41.080Z,72.99
2019-04-14T18:23:11.978Z,72.95
2019-04-14T18:25:43.507Z,72.93
2019-04-14T18:28:25.996Z,72.78
2019-04-14T18:31:01.958Z,72.95
2019-04-14T18:33:52.387Z,73.17
2019-04-14T18:36:45.379Z,73.20
2019-04-14T18:39:49.734Z,73.03
2019-04-14T18:42:25.257Z,72.87
2019-04-14T18:45:15.024Z,72.60
2019-04-14T18:47:48.660Z,72.29
2019-04-14T18:50:27.644Z,72.19
2019-04-14T18:53:08.961Z,72.43
2019-04-14T18:55:48.795Z,72.82
2019-04-14T18:58:42.717Z,73.12
2019-04-14T19:01:18.533Z,73.24
2019-04-14T19:03:49.419Z,73.19
2019-04-14T19:06:20.309Z,73.14
2019-04-14T19:08:51.867Z,73.17
2019-04-14T19:11:40.631Z,73.31
2019-04-14T19:14:14.378Z,73.30
2019-04-14T19:16:48.637Z,73.19
2019-04-14T19:19:20.510Z,73.24
2019-04-14T19:21:51.624Z,73.20
2019-04-14T19:24:22.500Z,73.02
2019-04-14T19:26:53.677Z,72.94
2019-04-14T19:29:27.549Z,73.07
2019-04-14T19:31:57.276Z,73.12
2019-04-14T19:34:28.136Z,73.12
2019-04-14T19:36:59.428Z,73.03
2019-04-14T19:39:31.191Z,72.91
2019-04-14T19:42:02.058Z,73.14
2019-04-14T19:44:32.920Z,73.19
2019-04-14T19:47:03.915Z,73.28
2019-04-14T19:49:34.816Z,73.10
2019-04-14T19:52:06.045Z,72.91
2019-04-14T19:54:37.240Z,72.78
2019-04-14T19:57:08.100Z,72.81
2019-04-14T19:59:40.105Z,72.88
2019-04-14T20:02:11.208Z,73.01
2019-04-14T20:04:42.071Z,72.98
2019-04-14T20:07:13.118Z,72.72
2019-04-14T20:09:44.241Z,72.71
2019-04-14T20:12:15.398Z,72.70
2019-04-14T20:14:47.867Z,72.64
2019-04-14T20:17:53.106Z,72.67
2019-04-14T20:20:35.613Z,72.80
2019-04-14T20:23:17.152Z,72.60
2019-04-14T20:26:04.426Z,72.59
2019-04-14T20:28:40.045Z,72.75
2019-04-14T20:31:26.794Z,72.98
2019-04-14T20:33:58.030Z,73.11
2019-04-14T20:36:29.456Z,73.27
2019-04-14T20:39:00.396Z,73.00
2019-04-14T20:41:31.915Z,73.03
2019-04-14T20:44:03.311Z,72.33
2019-04-14T20:46:34.230Z,72.39
2019-04-14T20:49:06.062Z,72.36
2019-04-14T20:51:36.934Z,72.30
2019-04-14T20:54:07.872Z,72.33
2019-04-14T20:56:38.876Z,72.64
2019-04-14T20:59:09.802Z,72.76
2019-04-14T21:01:44.869Z,72.86
2019-04-14T21:04:27.941Z,72.90
2019-04-14T21:07:16.793Z,73.09
2019-04-14T21:09:57.257Z,73.12
2019-04-14T21:12:50.164Z,73.06
2019-04-14T21:15:34.825Z,73.10
2019-04-14T21:18:12.487Z,73.07
2019-04-14T21:21:11.440Z,73.32
2019-04-14T21:23:56.708Z,73.47
2019-04-14T21:27:04.665Z,73.69
2019-04-14T21:30:00.360Z,73.76
2019-04-14T21:32:39.329Z,73.66
2019-04-14T21:35:41.547Z,73.26
2019-04-14T21:38:24.614Z,72.79
2019-04-14T21:41:02.703Z,72.52
2019-04-14T21:43:33.525Z,72.97
2019-04-14T21:46:04.580Z,72.71
2019-04-14T21:48:35.659Z,72.74
2019-04-14T21:51:06.602Z,72.54
2019-04-14T21:53:37.833Z,72.69
2019-04-14T21:56:13.488Z,72.37
2019-04-14T21:59:00.261Z,71.99
2019-04-14T22:01:53.002Z,72.19
2019-04-14T22:04:43.825Z,72.16
2019-04-14T22:07:32.590Z,72.41
2019-04-14T22:10:18.095Z,72.39
2019-04-14T22:12:49.399Z,72.08
2019-04-14T22:15:20.270Z,71.73
2019-04-14T22:17:51.590Z,71.81
2019-04-14T22:20:22.483Z,71.75
2019-04-14T22:22:53.240Z,71.63
2019-04-14T22:25:24.360Z,71.66
2019-04-14T22:27:55.316Z,71.64
2019-04-14T22:30:26.178Z,71.78
2019-04-14T22:32:57.031Z,71.75
2019-04-14T22:35:28.935Z,71.98
2019-04-14T22:38:00.340Z,71.67
2019-04-14T22:40:31.205Z,71.62
2019-04-14T22:43:02.155Z,71.33
2019-04-14T22:45:33.273Z,71.34
2019-04-14T22:48:04.745Z,71.23
2019-04-14T22:50:35.588Z,71.54
2019-04-14T22:53:06.458Z,71.32
2019-04-14T22:55:37.700Z,71.67
2019-04-14T22:58:09.736Z,71.39
2019-04-14T23:00:45.511Z,71.62
2019-04-14T23:03:37.273Z,71.25
2019-04-14T23:06:39.120Z,70.59
2019-04-14T23:09:32.229Z,70.29
2019-04-14T23:12:12.955Z,70.30
2019-04-14T23:14:50.836Z,69.23
2019-04-14T23:17:33.384Z,68.91
2019-04-14T23:20:30.508Z,69.70
2019-04-14T23:23:11.137Z,69.87
2019-04-14T23:25:42.216Z,69.67
2019-04-14T23:28:14.279Z,69.48
2019-04-14T23:30:45.125Z,69.08
2019-04-14T23:33:16.911Z,69.11
2019-04-14T23:35:48.431Z,69.29
2019-04-14T23:38:19.294Z,69.30
2019-04-14T23:40:50.365Z,68.77
2019-04-14T23:43:21.552Z,68.56
2019-04-14T23:45:52.397Z,67.76
2019-04-14T23:48:24.562Z,67.89
2019-04-14T23:50:55.419Z,68.44
2019-04-14T23:53:29.284Z,68.35
2019-04-14T23:56:00.142Z,68.14
2019-04-14T23:58:31.005Z,68.33
